Time;durP1;ratioP1;P1;durP2;ratioP2;P2;SDS_P1;SDS_P2;PMS_P1;PMS_P2;Temp;Humidity;BMP_temperature;BMP_pressure;BME280_temperature;BME280_humidity;BME280_pressure;Samples;Min_cycle;Max_cycle;Signal;HPM_P1;HPM_P2
2022/02/07 00:00:12;;;;;;;1.33;0.30;;;22.70;99.90;;;;;;5060125;28;20025;-73
2022/02/07 00:03:03;;;;;;;2.00;0.17;;;23.70;99.90;;;;;;5053773;28;20033;-74
2022/02/07 00:05:30;;;;;;;4.65;0.82;;;24.20;99.90;;;;;;5053875;28;20064;-73
2022/02/07 00:07:58;;;;;;;2.25;1.10;;;24.00;99.90;;;;;;5058970;28;20052;-74
2022/02/07 00:10:26;;;;;;;2.58;0.20;;;23.70;99.90;;;;;;5061572;28;20037;-73
2022/02/07 00:12:53;;;;;;;3.25;0.30;;;23.40;99.90;;;;;;5063145;28;20062;-73
2022/02/07 00:15:21;;;;;;;3.20;0.30;;;23.20;99.90;;;;;;5061765;28;20031;-72
2022/02/07 00:17:49;;;;;;;3.47;0.73;;;23.00;99.90;;;;;;5059622;28;21654;-74
2022/02/07 00:20:19;;;;;;;2.78;0.40;;;23.00;99.90;;;;;;5053522;28;20116;-73
2022/02/07 00:22:48;;;;;;;3.53;1.13;;;23.20;99.90;;;;;;5061276;28;20024;-73
2022/02/07 00:25:17;;;;;;;4.63;0.30;;;23.60;99.90;;;;;;5061726;28;20147;-73
2022/02/07 00:27:44;;;;;;;1.65;0.20;;;23.50;99.90;;;;;;5064698;28;20063;-73
2022/02/07 00:30:15;;;;;;;1.73;0.30;;;23.30;99.90;;;;;;5058551;28;20424;-72
2022/02/07 00:32:43;;;;;;;3.53;0.35;;;23.10;99.90;;;;;;5065454;28;20017;-73
2022/02/07 00:35:15;;;;;;;4.55;0.50;;;22.90;99.90;;;;;;5061955;28;20095;-72
2022/02/07 00:37:45;;;;;;;2.88;0.45;;;22.70;99.90;;;;;;5055725;28;20501;-72
2022/02/07 00:43:03;;;;;;;2.22;0.43;;;22.10;99.90;;;;;;5071148;28;20037;-73
2022/02/07 00:48:03;;;;;;;2.42;0.35;;;22.00;99.90;;;;;;5066149;28;20360;-72
2022/02/07 00:50:33;;;;;;;5.50;0.28;;;22.20;99.90;;;;;;5070146;28;20510;-73
2022/02/07 00:53:05;;;;;;;2.47;0.28;;;22.30;99.90;;;;;;5065116;28;20059;-71
2022/02/07 00:55:33;;;;;;;2.50;0.57;;;22.40;99.90;;;;;;5054136;28;20053;-74
2022/02/07 00:58:03;;;;;;;1.30;0.35;;;22.30;99.90;;;;;;5065634;28;20043;-72
2022/02/07 01:00:30;;;;;;;5.68;0.98;;;22.20;99.90;;;;;;5066810;28;20016;-72
2022/02/07 01:02:58;;;;;;;0.88;0.40;;;22.00;99.90;;;;;;5063116;28;20156;-70
2022/02/07 01:05:26;;;;;;;4.53;0.63;;;22.00;99.90;;;;;;5066194;28;20074;-72
2022/02/07 01:07:57;;;;;;;3.63;0.60;;;21.90;99.90;;;;;;5058482;28;20527;-71
2022/02/07 01:10:39;;;;;;;0.68;0.20;;;21.80;99.90;;;;;;5054855;28;20025;-72
2022/02/07 01:16:28;;;;;;;4.65;0.70;;;21.80;99.90;;;;;;5063385;28;20029;-72
2022/02/07 01:19:02;;;;;;;3.33;0.50;;;21.70;99.90;;;;;;5060376;28;20051;-72
2022/02/07 01:46:35;;;;;;;2.78;1.55;;;21.10;99.90;;;;;;4984973;28;20057;-73
2022/02/07 01:57:00;;;;;;;1.67;0.60;;;21.30;99.90;;;;;;4987682;28;20026;-73
2022/02/07 01:59:28;;;;;;;4.50;1.15;;;21.40;99.90;;;;;;4979302;28;20143;-72
2022/02/07 02:01:55;;;;;;;1.73;1.10;;;21.30;99.90;;;;;;4984239;28;20431;-72
2022/02/07 02:04:22;;;;;;;1.95;0.90;;;21.30;99.90;;;;;;4991773;28;20026;-72
2022/02/07 02:06:49;;;;;;;3.08;1.05;;;21.30;99.90;;;;;;4987605;28;20100;-73
2022/02/07 02:09:17;;;;;;;3.47;0.25;;;21.40;99.90;;;;;;4974926;28;20045;-73
2022/02/07 02:11:45;;;;;;;2.42;0.95;;;21.40;99.90;;;;;;4984396;28;20019;-72
2022/02/07 02:36:14;;;;;;;4.03;0.40;;;24.30;99.90;;;;;;4980738;28;20038;-74
2022/02/07 02:46:47;;;;;;;3.28;0.35;;;25.30;99.90;;;;;;4989825;28;20366;-74
2022/02/07 02:49:15;;;;;;;7.80;1.10;;;24.90;99.90;;;;;;4988531;28;20053;-73
2022/02/07 02:51:42;;;;;;;3.15;0.40;;;25.00;99.90;;;;;;4989300;28;20034;-74
2022/02/07 02:54:10;;;;;;;3.97;0.40;;;25.00;99.90;;;;;;4979865;28;21812;-74
2022/02/07 02:56:38;;;;;;;2.63;1.02;;;25.00;99.90;;;;;;4978698;28;20461;-73
2022/02/07 02:59:06;;;;;;;3.53;0.32;;;24.40;99.90;;;;;;4988405;28;20047;-73
2022/02/07 03:01:33;;;;;;;3.65;0.38;;;23.60;99.90;;;;;;4980805;28;20117;-73
2022/02/07 03:04:01;;;;;;;2.42;0.40;;;22.90;99.90;;;;;;4979916;28;20031;-73
2022/02/07 03:06:28;;;;;;;3.92;0.63;;;22.50;99.90;;;;;;4979518;28;20082;-74
2022/02/07 03:08:58;;;;;;;3.45;0.47;;;22.20;99.90;;;;;;4974898;28;20035;-73
2022/02/07 03:11:26;;;;;;;1.67;0.43;;;22.30;99.90;;;;;;4979022;28;20034;-74
2022/02/07 03:26:57;;;;;;;2.25;0.35;;;23.40;99.90;;;;;;4946678;28;20049;-77
2022/02/07 03:29:24;;;;;;;0.43;0.10;;;23.10;99.90;;;;;;4955205;28;20038;-73
2022/02/07 03:32:18;;;;;;;2.30;0.55;;;23.00;99.90;;;;;;4953942;28;20019;-75
2022/02/07 03:34:46;;;;;;;3.00;0.28;;;22.90;99.90;;;;;;4955744;28;20030;-74
2022/02/07 03:37:13;;;;;;;1.42;0.40;;;22.70;99.90;;;;;;4960493;28;20034;-74
2022/02/07 03:39:40;;;;;;;2.65;0.28;;;22.70;99.90;;;;;;4962269;28;20914;-75
2022/02/07 03:42:08;;;;;;;3.50;0.30;;;22.70;99.90;;;;;;4962105;28;20424;-74
2022/02/07 03:44:35;;;;;;;1.65;0.20;;;22.80;99.90;;;;;;4962867;28;20086;-75
2022/02/07 03:47:03;;;;;;;2.33;0.20;;;22.90;99.90;;;;;;4961771;28;20054;-73
2022/02/07 03:49:31;;;;;;;0.47;0.13;;;23.00;99.90;;;;;;4962018;28;20434;-74
2022/02/07 03:51:58;;;;;;;1.13;0.22;;;23.20;99.90;;;;;;4962834;28;20065;-73
2022/02/07 03:54:26;;;;;;;1.23;0.20;;;23.30;99.90;;;;;;4959492;28;20055;-75
2022/02/07 03:56:53;;;;;;;1.88;0.40;;;23.30;99.90;;;;;;4962135;28;20033;-76
2022/02/07 03:59:21;;;;;;;1.52;0.57;;;23.40;99.90;;;;;;4962841;28;20062;-74
2022/02/07 04:01:48;;;;;;;4.50;0.82;;;23.70;99.90;;;;;;4959922;28;20533;-75
2022/02/07 04:04:15;;;;;;;1.00;0.30;;;24.40;99.90;;;;;;4963713;28;20031;-76
2022/02/07 04:06:43;;;;;;;5.68;1.27;;;25.10;99.90;;;;;;4962030;28;20035;-74
2022/02/07 04:09:14;;;;;;;3.35;0.28;;;25.30;99.90;;;;;;4960153;28;20027;-75
2022/02/07 04:11:54;;;;;;;1.27;0.43;;;25.70;99.90;;;;;;4962797;28;20031;-73
2022/02/07 04:14:24;;;;;;;3.35;0.40;;;26.40;99.70;;;;;;4969007;28;20216;-73
2022/02/07 04:16:51;;;;;;;1.48;0.40;;;26.40;97.50;;;;;;4968465;28;20034;-74
2022/02/07 04:19:21;;;;;;;2.30;0.40;;;26.10;97.70;;;;;;4967683;28;20114;-74
2022/02/07 04:21:51;;;;;;;0.63;0.40;;;25.80;98.00;;;;;;4966351;28;20038;-76
2022/02/07 04:24:20;;;;;;;1.80;0.30;;;25.80;98.20;;;;;;4969808;28;20050;-75
2022/02/07 04:26:47;;;;;;;3.55;0.43;;;25.90;98.70;;;;;;4966317;28;20031;-75
2022/02/07 04:29:15;;;;;;;7.05;0.40;;;25.80;98.00;;;;;;4969448;28;20035;-76
2022/02/07 04:31:42;;;;;;;2.17;0.40;;;25.50;97.60;;;;;;4965324;28;20030;-75
2022/02/07 04:34:10;;;;;;;4.90;0.32;;;25.00;97.70;;;;;;4960086;28;20105;-76
2022/02/07 04:36:40;;;;;;;1.40;0.52;;;24.90;98.30;;;;;;4962408;28;20062;-75
2022/02/07 04:39:07;;;;;;;4.57;0.52;;;24.60;98.50;;;;;;4960370;28;20042;-76
2022/02/07 04:41:35;;;;;;;2.60;1.13;;;24.40;98.80;;;;;;4958724;28;20117;-78
2022/02/07 04:44:08;;;;;;;2.15;0.60;;;24.00;99.40;;;;;;4959801;28;20438;-74
2022/02/07 04:57:12;;;;;;;3.47;0.40;;;23.20;99.90;;;;;;4962060;28;20031;-74
2022/02/07 05:00:05;;;;;;;5.53;0.82;;;23.30;99.90;;;;;;4963194;28;20161;-75
2022/02/07 05:16:18;;;;;;;3.35;0.63;;;22.90;99.90;;;;;;4964143;28;20049;-75
2022/02/07 05:18:48;;;;;;;1.02;0.40;;;23.10;99.90;;;;;;4964916;28;20556;-74
2022/02/07 05:21:16;;;;;;;3.00;0.60;;;23.20;99.90;;;;;;4946169;28;20037;-74
2022/02/07 05:23:43;;;;;;;5.07;0.70;;;23.20;99.90;;;;;;4959449;28;20038;-74
2022/02/07 05:26:11;;;;;;;2.83;0.65;;;23.30;99.90;;;;;;4962267;28;20447;-74
2022/02/07 05:28:39;;;;;;;4.05;1.00;;;23.30;99.90;;;;;;4961728;28;20110;-74
2022/02/07 05:31:08;;;;;;;4.45;1.55;;;23.30;99.90;;;;;;4964819;28;20033;-74
2022/02/07 05:33:39;;;;;;;2.00;0.52;;;23.30;99.90;;;;;;4965320;28;20042;-75
2022/02/07 05:36:10;;;;;;;3.58;0.50;;;23.20;99.90;;;;;;4964557;28;20563;-74
2022/02/07 05:38:45;;;;;;;3.45;1.70;;;23.30;99.90;;;;;;4971667;28;20035;-74
2022/02/07 05:41:15;;;;;;;1.90;0.37;;;23.30;99.90;;;;;;4968762;28;20117;-76
2022/02/07 05:43:46;;;;;;;2.72;0.30;;;23.40;99.90;;;;;;4963789;28;20039;-74
2022/02/07 05:46:14;;;;;;;6.43;0.85;;;23.40;99.90;;;;;;4961905;28;20027;-74
2022/02/07 05:48:42;;;;;;;3.53;0.47;;;23.40;99.90;;;;;;4970293;28;20037;-74
2022/02/07 05:51:09;;;;;;;5.20;1.23;;;23.40;99.90;;;;;;4962364;28;20045;-75
2022/02/07 05:53:37;;;;;;;2.00;0.35;;;23.50;99.90;;;;;;4965285;28;20400;-76
2022/02/07 05:56:05;;;;;;;2.83;0.47;;;23.50;99.90;;;;;;4964016;28;20031;-74
2022/02/07 05:58:32;;;;;;;1.85;0.40;;;23.60;99.90;;;;;;4961461;28;20034;-75
2022/02/07 06:00:59;;;;;;;2.97;0.50;;;23.60;99.80;;;;;;4963158;28;20026;-75
2022/02/07 06:03:27;;;;;;;2.90;0.70;;;23.60;99.90;;;;;;4964636;28;20126;-74
2022/02/07 06:05:54;;;;;;;5.82;0.80;;;23.50;99.90;;;;;;4967107;28;20500;-74
2022/02/07 06:08:21;;;;;;;6.05;0.43;;;23.50;99.90;;;;;;4970551;28;20034;-75
2022/02/07 06:10:49;;;;;;;2.63;0.60;;;23.40;99.90;;;;;;4971424;28;20093;-75
2022/02/07 06:13:18;;;;;;;1.13;0.70;;;23.30;99.90;;;;;;4971460;28;20035;-75
2022/02/07 06:15:46;;;;;;;2.25;0.43;;;23.20;99.90;;;;;;4971772;28;20035;-76
2022/02/07 06:18:16;;;;;;;8.57;1.35;;;23.10;99.90;;;;;;4964961;28;20039;-74
2022/02/07 06:20:44;;;;;;;3.60;0.82;;;23.00;99.90;;;;;;4971273;28;20186;-74
2022/02/07 06:23:11;;;;;;;2.53;0.60;;;23.00;99.90;;;;;;4970997;28;20041;-74
2022/02/07 06:25:38;;;;;;;2.38;0.38;;;23.00;99.90;;;;;;4971262;28;20039;-75
2022/02/07 06:28:06;;;;;;;3.03;0.45;;;23.10;99.90;;;;;;4961130;28;20019;-75
2022/02/07 06:30:33;;;;;;;4.00;0.47;;;23.10;99.70;;;;;;4970846;28;20027;-74
2022/02/07 06:33:00;;;;;;;4.05;0.40;;;23.10;99.90;;;;;;4967369;28;20113;-74
2022/02/07 06:35:28;;;;;;;3.38;1.15;;;23.10;99.90;;;;;;4960639;28;20428;-75
2022/02/07 06:37:56;;;;;;;3.75;0.35;;;23.00;99.80;;;;;;4960369;28;20042;-74
2022/02/07 06:40:23;;;;;;;3.83;0.40;;;23.10;99.90;;;;;;4961374;28;20054;-74
2022/02/07 06:42:50;;;;;;;4.57;0.40;;;23.10;99.90;;;;;;4961958;28;20071;-73
2022/02/07 06:45:18;;;;;;;1.92;0.40;;;23.20;99.90;;;;;;4964687;28;20057;-74
2022/02/07 06:47:45;;;;;;;4.80;0.52;;;23.10;99.90;;;;;;4962755;28;20031;-74
2022/02/07 06:50:12;;;;;;;2.65;0.75;;;23.10;99.50;;;;;;4964684;28;20041;-74
2022/02/07 06:52:40;;;;;;;4.03;0.75;;;23.20;99.10;;;;;;4961570;28;20042;-75
2022/02/07 06:55:07;;;;;;;3.38;0.60;;;23.40;98.70;;;;;;4967857;28;20038;-75
2022/02/07 06:57:36;;;;;;;3.97;0.55;;;23.50;98.80;;;;;;4963602;28;20352;-75
2022/02/07 07:00:06;;;;;;;3.25;0.63;;;23.40;98.30;;;;;;4963992;28;20165;-76
2022/02/07 07:02:34;;;;;;;3.63;0.45;;;23.40;98.40;;;;;;4961218;28;20027;-77
2022/02/07 07:05:08;;;;;;;2.72;0.80;;;23.20;98.00;;;;;;4951412;28;20090;-75
2022/02/07 07:07:36;;;;;;;5.78;0.65;;;22.90;98.20;;;;;;4962150;28;20030;-76
2022/02/07 07:10:06;;;;;;;9.07;1.60;;;22.70;98.20;;;;;;4963214;28;20027;-76
2022/02/07 07:12:33;;;;;;;2.08;0.57;;;22.70;98.90;;;;;;4960903;28;20061;-77
2022/02/07 07:15:28;;;;;;;2.63;0.50;;;22.70;99.00;;;;;;4961419;28;20089;-76
2022/02/07 07:17:50;;;;;;;3.95;0.77;;;22.60;98.60;;;;;;4966489;28;20035;-76
2022/02/07 07:20:18;;;;;;;2.50;0.45;;;22.80;98.80;;;;;;4968777;28;20035;-78
2022/02/07 07:22:45;;;;;;;6.35;1.10;;;22.90;98.40;;;;;;4967704;28;20050;-76
2022/02/07 07:25:16;;;;;;;3.17;0.40;;;22.80;98.30;;;;;;4969793;28;20158;-79
2022/02/07 07:28:08;;;;;;;4.82;0.45;;;23.00;98.60;;;;;;4968389;28;20066;-73
2022/02/07 07:30:37;;;;;;;2.67;0.50;;;23.10;98.50;;;;;;4969053;28;20050;-75
2022/02/07 07:33:09;;;;;;;5.45;0.70;;;23.30;97.50;;;;;;4950392;28;20050;-75
2022/02/07 07:35:37;;;;;;;2.17;0.30;;;23.20;97.50;;;;;;4969900;28;20038;-76
2022/02/07 07:38:04;;;;;;;6.00;1.00;;;23.10;97.20;;;;;;4968349;28;20049;-77
2022/02/07 07:40:31;;;;;;;2.42;0.57;;;23.10;97.70;;;;;;4969506;28;20085;-75
2022/02/07 07:42:59;;;;;;;3.70;0.25;;;23.10;97.20;;;;;;4969843;28;20485;-78
2022/02/07 07:45:32;;;;;;;1.05;0.30;;;23.10;96.50;;;;;;4970367;28;20466;-78
2022/02/07 07:48:03;;;;;;;4.03;0.30;;;23.00;96.70;;;;;;4970494;28;20054;-74
2022/02/07 07:50:40;;;;;;;6.43;0.43;;;23.00;96.70;;;;;;4969204;28;20093;-77
2022/02/07 08:03:47;;;;;;;5.28;1.65;;;22.40;96.90;;;;;;4964064;28;20081;-74
2022/02/07 08:06:23;;;;;;;2.17;0.40;;;22.20;97.60;;;;;;4950396;28;20035;-76
2022/02/07 08:11:34;;;;;;;4.78;0.75;;;22.00;97.90;;;;;;4969565;28;20027;-74
2022/02/07 08:14:04;;;;;;;2.92;0.57;;;21.90;98.30;;;;;;4954196;28;20023;-76
2022/02/07 08:16:31;;;;;;;1.40;0.20;;;21.80;98.10;;;;;;4969621;28;20031;-76
2022/02/07 08:19:05;;;;;;;0.47;0.13;;;21.60;98.40;;;;;;4970694;28;20027;-74
2022/02/07 08:21:35;;;;;;;1.67;0.28;;;21.60;98.70;;;;;;4965686;28;20026;-77
2022/02/07 08:24:03;;;;;;;2.35;0.35;;;21.50;99.00;;;;;;4971715;28;20051;-75
2022/02/07 08:26:31;;;;;;;3.10;0.40;;;21.40;99.20;;;;;;4969789;28;20527;-75
2022/02/07 08:28:58;;;;;;;1.92;0.50;;;21.30;98.80;;;;;;4971134;28;20031;-75
2022/02/07 08:31:25;;;;;;;3.30;0.73;;;21.30;99.00;;;;;;4969280;28;20101;-76
2022/02/07 08:33:53;;;;;;;2.83;0.63;;;21.30;99.20;;;;;;4973354;28;20022;-75
2022/02/07 08:36:21;;;;;;;4.43;0.77;;;21.20;99.30;;;;;;4972851;28;20026;-76
2022/02/07 08:38:49;;;;;;;4.18;1.15;;;21.10;99.40;;;;;;4974806;28;20038;-79
2022/02/07 08:41:16;;;;;;;1.92;0.75;;;21.10;99.40;;;;;;4972087;28;20093;-79
2022/02/07 08:43:44;;;;;;;2.40;0.50;;;21.00;99.60;;;;;;4975395;28;20049;-76
2022/02/07 08:46:11;;;;;;;2.75;0.40;;;21.00;99.60;;;;;;4973237;28;20127;-75
2022/02/07 08:48:39;;;;;;;2.13;0.30;;;20.90;99.70;;;;;;4973454;28;20023;-76
2022/02/07 08:51:07;;;;;;;3.63;0.40;;;20.80;99.70;;;;;;4969433;28;20540;-80
2022/02/07 08:53:40;;;;;;;4.57;1.08;;;20.80;99.90;;;;;;4974364;28;20042;-78
2022/02/07 08:56:09;;;;;;;2.28;0.47;;;20.70;99.90;;;;;;4970678;28;20491;-77
2022/02/07 08:58:40;;;;;;;2.38;0.80;;;20.60;99.90;;;;;;4956080;29;20035;-77
2022/02/07 09:01:15;;;;;;;2.13;0.45;;;20.50;99.90;;;;;;4966597;28;20087;-76
2022/02/07 09:04:08;;;;;;;2.30;0.15;;;20.50;99.90;;;;;;4969907;28;20030;-79
2022/02/07 09:06:54;;;;;;;4.03;0.80;;;20.40;99.90;;;;;;4972421;28;20042;-76
2022/02/07 09:09:21;;;;;;;2.95;0.50;;;20.40;99.90;;;;;;4975011;28;20039;-75
2022/02/07 09:11:49;;;;;;;0.52;0.20;;;20.30;99.90;;;;;;4973169;28;20030;-75
2022/02/07 09:14:21;;;;;;;3.08;0.40;;;20.30;99.90;;;;;;4974029;28;20067;-74
2022/02/07 09:16:51;;;;;;;2.30;0.50;;;20.30;99.90;;;;;;4972458;28;20058;-75
2022/02/07 09:19:22;;;;;;;4.53;0.70;;;20.20;99.90;;;;;;4973881;28;20038;-74
2022/02/07 09:21:50;;;;;;;3.00;0.38;;;20.20;99.90;;;;;;4971203;28;20125;-75
2022/02/07 09:24:17;;;;;;;3.17;0.40;;;20.10;99.90;;;;;;4972170;28;20026;-75
2022/02/07 09:26:45;;;;;;;1.23;0.47;;;20.10;99.90;;;;;;4969756;28;20035;-74
2022/02/07 09:29:12;;;;;;;5.57;0.50;;;20.10;99.90;;;;;;4973579;28;20512;-75
2022/02/07 09:31:40;;;;;;;7.90;0.52;;;20.10;99.90;;;;;;4969956;28;20034;-75
2022/02/07 09:34:08;;;;;;;2.95;0.93;;;20.20;99.90;;;;;;4974393;28;20027;-76
2022/02/07 09:36:36;;;;;;;2.90;0.47;;;20.20;99.90;;;;;;4954953;28;20042;-76
2022/02/07 09:39:03;;;;;;;2.92;0.50;;;20.30;99.90;;;;;;4972307;28;20494;-75
2022/02/07 09:41:33;;;;;;;2.88;0.32;;;20.30;99.90;;;;;;4971802;28;20038;-75
2022/02/07 09:44:02;;;;;;;4.40;0.98;;;20.30;99.90;;;;;;4970865;28;20088;-76
2022/02/07 09:46:43;;;;;;;12.02;1.65;;;20.30;99.90;;;;;;4970795;28;20033;-77
2022/02/07 09:49:12;;;;;;;3.75;0.40;;;20.30;99.90;;;;;;4970143;28;20105;-76
2022/02/07 09:51:43;;;;;;;5.43;0.50;;;20.30;99.90;;;;;;4971013;28;20558;-77
2022/02/07 09:54:15;;;;;;;3.33;0.73;;;20.40;99.90;;;;;;4972227;28;20057;-76
2022/02/07 09:56:45;;;;;;;3.08;0.80;;;20.40;99.90;;;;;;4970463;28;20374;-76
2022/02/07 09:59:14;;;;;;;5.95;0.70;;;20.30;99.90;;;;;;4972021;28;20047;-76
2022/02/07 10:01:47;;;;;;;3.80;0.35;;;20.30;99.90;;;;;;4955161;28;20026;-75
2022/02/07 10:04:34;;;;;;;2.92;0.50;;;20.40;99.90;;;;;;4971080;28;20034;-75
2022/02/07 10:07:17;;;;;;;2.22;0.80;;;20.30;99.90;;;;;;4954710;28;20559;-76
2022/02/07 10:15:04;;;;;;;2.60;0.40;;;20.10;99.90;;;;;;4973226;28;20077;-74
2022/02/07 10:40:30;;;;;;;4.47;0.60;;;20.20;99.90;;;;;;4962990;28;20121;-74
2022/02/07 10:46:09;;;;;;;2.83;0.52;;;20.10;99.90;;;;;;4970256;28;20027;-74
2022/02/07 10:48:37;;;;;;;2.38;0.22;;;20.10;99.90;;;;;;4969928;28;20057;-74
2022/02/07 10:51:14;;;;;;;5.15;0.63;;;20.10;99.90;;;;;;4969868;28;20035;-74
2022/02/07 10:53:55;;;;;;;3.17;0.28;;;20.10;99.90;;;;;;4972238;28;20023;-76
2022/02/07 10:56:42;;;;;;;2.45;0.52;;;20.10;99.90;;;;;;4968983;28;20105;-75
2022/02/07 10:59:14;;;;;;;0.60;0.30;;;20.10;99.90;;;;;;4955264;28;20043;-75
2022/02/07 11:04:36;;;;;;;2.35;0.30;;;20.10;99.90;;;;;;4972388;28;20400;-77
2022/02/07 11:07:05;;;;;;;2.50;0.70;;;20.10;99.90;;;;;;4969246;28;20436;-75
2022/02/07 11:09:57;;;;;;;4.75;1.00;;;20.00;99.90;;;;;;4952009;28;20026;-74
2022/02/07 11:21:04;;;;;;;3.97;0.82;;;20.10;99.90;;;;;;4960683;28;20445;-78
2022/02/07 11:23:48;;;;;;;2.78;0.28;;;20.00;99.90;;;;;;4955389;28;20023;-76
2022/02/07 11:26:49;;;;;;;2.22;0.40;;;20.00;99.90;;;;;;4969638;28;20061;-76
2022/02/07 11:29:48;;;;;;;3.65;0.30;;;20.00;99.90;;;;;;4969751;28;20454;-77
2022/02/07 11:32:48;;;;;;;1.13;0.20;;;20.00;99.90;;;;;;4966122;28;20035;-78
2022/02/07 11:35:21;;;;;;;2.08;0.40;;;20.00;99.90;;;;;;4965469;28;20374;-76
2022/02/07 11:38:12;;;;;;;2.85;0.38;;;20.00;99.90;;;;;;4964974;28;20389;-77
2022/02/07 11:40:57;;;;;;;0.98;0.45;;;20.00;99.90;;;;;;4944769;28;20081;-77
2022/02/07 11:43:27;;;;;;;1.75;0.22;;;19.90;99.90;;;;;;4950714;29;20490;-75
2022/02/07 11:45:55;;;;;;;3.28;0.60;;;20.00;99.90;;;;;;4961049;28;20104;-78
2022/02/07 11:48:46;;;;;;;0.82;0.20;;;20.00;99.90;;;;;;4963340;28;20054;-75
2022/02/07 11:51:34;;;;;;;5.90;1.02;;;20.00;99.90;;;;;;4968061;28;20032;-75
2022/02/07 11:54:04;;;;;;;1.23;0.40;;;19.90;99.90;;;;;;4969576;28;20122;-76
2022/02/07 11:56:47;;;;;;;2.75;0.57;;;19.90;99.90;;;;;;4965549;28;20054;-77
2022/02/07 12:02:07;;;;;;;2.03;0.40;;;19.80;99.90;;;;;;4964477;28;20039;-76
2022/02/07 12:04:38;;;;;;;4.55;0.30;;;19.60;99.90;;;;;;4968184;28;20481;-76
2022/02/07 12:07:21;;;;;;;3.25;0.60;;;19.60;99.90;;;;;;4969111;28;20126;-76
2022/02/07 12:10:05;;;;;;;3.13;0.60;;;19.60;99.90;;;;;;4974802;28;20061;-81
2022/02/07 12:12:53;;;;;;;1.23;0.40;;;19.50;99.90;;;;;;4971600;28;20023;-77
2022/02/07 12:15:27;;;;;;;3.15;0.40;;;19.50;99.90;;;;;;4973557;28;20025;-75
2022/02/07 12:17:59;;;;;;;0.95;0.30;;;19.50;99.90;;;;;;4973417;28;20034;-76
2022/02/07 12:20:33;;;;;;;5.25;0.57;;;19.50;99.90;;;;;;4973680;28;20564;-78
2022/02/07 12:23:11;;;;;;;1.63;0.80;;;19.50;99.90;;;;;;4972446;28;20073;-74
2022/02/07 12:25:43;;;;;;;2.33;0.50;;;19.50;99.90;;;;;;4974949;28;20417;-77
2022/02/07 12:28:18;;;;;;;1.85;0.30;;;19.50;99.90;;;;;;4973558;28;20458;-76
2022/02/07 12:33:33;;;;;;;4.00;0.57;;;19.50;99.90;;;;;;4955605;28;20089;-76
2022/02/07 12:36:02;;;;;;;4.10;0.52;;;19.50;99.90;;;;;;4963525;28;20031;-78
2022/02/07 12:38:35;;;;;;;3.13;0.68;;;19.40;99.90;;;;;;4973870;28;20043;-77
2022/02/07 12:41:13;;;;;;;3.42;0.50;;;19.40;99.90;;;;;;4968813;28;20101;-76
2022/02/07 12:43:45;;;;;;;2.55;0.68;;;19.40;99.90;;;;;;4974716;28;20098;-73
2022/02/07 12:46:18;;;;;;;3.80;0.93;;;19.40;99.90;;;;;;4970715;28;20196;-77
2022/02/07 12:48:57;;;;;;;1.95;0.52;;;19.30;99.90;;;;;;4966424;28;20042;-75
2022/02/07 12:51:31;;;;;;;4.80;0.88;;;19.30;99.90;;;;;;4972601;28;20649;-78
2022/02/07 12:53:59;;;;;;;1.63;0.50;;;19.20;99.90;;;;;;4968698;28;20482;-76
2022/02/07 12:56:32;;;;;;;2.88;0.70;;;19.10;99.90;;;;;;4972406;28;20023;-75
2022/02/07 12:59:01;;;;;;;4.13;0.40;;;19.00;99.90;;;;;;4972875;28;20126;-75
2022/02/07 13:01:36;;;;;;;2.67;0.40;;;18.90;99.90;;;;;;4971681;28;20390;-79
2022/02/07 13:04:18;;;;;;;5.18;0.85;;;18.80;99.90;;;;;;4979925;28;20034;-79
2022/02/07 13:06:48;;;;;;;3.55;0.35;;;18.70;99.90;;;;;;4972496;28;20039;-78
2022/02/07 13:09:41;;;;;;;1.20;0.20;;;18.60;99.90;;;;;;4973215;28;20101;-79
2022/02/07 13:14:43;;;;;;;2.67;0.32;;;18.40;99.90;;;;;;4972648;28;20022;-80
2022/02/07 13:17:11;;;;;;;2.80;0.50;;;18.30;99.90;;;;;;4952463;28;20026;-79
2022/02/07 13:19:42;;;;;;;1.75;0.80;;;18.30;99.90;;;;;;4972851;28;20389;-78
2022/02/07 13:22:10;;;;;;;3.42;1.50;;;18.30;99.90;;;;;;4972477;28;20018;-77
2022/02/07 13:24:39;;;;;;;4.03;1.20;;;18.30;99.90;;;;;;4970589;28;20596;-79
2022/02/07 13:27:10;;;;;;;4.22;0.98;;;18.30;99.90;;;;;;4969322;28;20062;-77
2022/02/07 13:29:49;;;;;;;2.78;0.52;;;18.30;99.90;;;;;;4972339;28;20117;-81
2022/02/07 13:32:34;;;;;;;0.73;0.60;;;18.30;99.90;;;;;;4967861;28;20034;-76
2022/02/07 13:35:12;;;;;;;2.20;0.30;;;18.30;99.90;;;;;;4972557;28;20041;-78
2022/02/07 13:37:41;;;;;;;4.35;0.30;;;18.30;99.90;;;;;;4967669;28;20484;-77
2022/02/07 13:40:18;;;;;;;0.60;0.20;;;18.30;99.90;;;;;;4971367;28;20181;-75
2022/02/07 13:42:50;;;;;;;1.95;0.60;;;18.30;99.90;;;;;;4969432;28;21131;-79
2022/02/07 13:45:23;;;;;;;1.58;0.40;;;18.30;99.90;;;;;;4969462;28;20110;-74
2022/02/07 13:47:57;;;;;;;1.73;0.38;;;18.20;99.90;;;;;;4968513;28;20045;-75
2022/02/07 13:50:27;;;;;;;1.73;0.20;;;18.20;99.90;;;;;;4973305;28;20027;-76
2022/02/07 13:53:00;;;;;;;1.13;0.17;;;18.20;99.90;;;;;;4972276;28;20366;-75
2022/02/07 13:55:34;;;;;;;0.85;0.20;;;18.20;99.90;;;;;;4970261;28;20019;-75
2022/02/07 13:58:07;;;;;;;6.57;0.30;;;18.20;99.90;;;;;;4969634;28;20039;-76
2022/02/07 14:00:49;;;;;;;1.50;0.40;;;18.20;99.90;;;;;;4969094;28;20027;-74
2022/02/07 14:03:27;;;;;;;3.20;0.28;;;18.20;99.90;;;;;;4972187;28;20457;-75
2022/02/07 14:06:07;;;;;;;0.20;0.10;;;18.30;99.90;;;;;;4971957;28;20033;-75
2022/02/07 14:08:44;;;;;;;1.45;0.57;;;18.30;99.90;;;;;;4968955;28;20050;-76
2022/02/07 14:11:14;;;;;;;2.47;0.68;;;18.30;99.90;;;;;;4972538;28;20030;-76
2022/02/07 14:13:44;;;;;;;1.98;0.47;;;18.30;99.90;;;;;;4973980;28;20037;-77
2022/02/07 14:16:14;;;;;;;1.60;0.25;;;18.30;99.90;;;;;;4971119;28;20554;-75
2022/02/07 14:18:46;;;;;;;1.77;0.20;;;18.30;99.90;;;;;;4971345;28;20097;-78
2022/02/07 14:21:15;;;;;;;0.50;0.20;;;18.30;99.90;;;;;;4970587;28;20071;-76
2022/02/07 14:23:45;;;;;;;0.45;0.30;;;18.30;99.90;;;;;;4972921;28;20029;-74
2022/02/07 14:26:16;;;;;;;1.45;0.20;;;18.30;99.90;;;;;;4975091;28;20566;-75
2022/02/07 14:28:47;;;;;;;0.77;0.20;;;18.30;99.90;;;;;;4972293;28;20311;-75
2022/02/07 14:31:15;;;;;;;1.23;0.20;;;18.30;99.90;;;;;;4971461;28;20442;-74
2022/02/07 14:33:42;;;;;;;2.58;0.20;;;18.30;99.90;;;;;;4971912;28;20358;-74
2022/02/07 14:36:10;;;;;;;2.25;0.28;;;18.30;99.90;;;;;;4971313;28;20027;-74
2022/02/07 14:38:38;;;;;;;3.38;0.30;;;18.30;99.90;;;;;;4972890;28;20078;-74
2022/02/07 14:41:09;;;;;;;0.73;0.50;;;18.30;99.90;;;;;;4972039;28;20586;-75
2022/02/07 14:43:38;;;;;;;0.63;0.10;;;18.30;99.90;;;;;;4973268;28;20520;-75
2022/02/07 14:46:09;;;;;;;3.67;0.65;;;18.20;99.90;;;;;;4969994;28;20035;-74
2022/02/07 14:48:39;;;;;;;1.77;0.30;;;18.30;99.90;;;;;;4968723;28;20078;-74
2022/02/07 14:51:08;;;;;;;1.23;0.32;;;18.30;99.90;;;;;;4971515;28;20050;-74
2022/02/07 14:53:37;;;;;;;1.27;0.30;;;18.30;99.90;;;;;;4972515;28;20058;-75
2022/02/07 14:56:06;;;;;;;2.75;0.22;;;18.30;99.90;;;;;;4971049;28;21246;-74
2022/02/07 14:58:34;;;;;;;1.45;0.13;;;18.30;99.90;;;;;;4968657;28;20073;-75
2022/02/07 15:01:02;;;;;;;0.70;0.20;;;18.30;99.90;;;;;;4967647;28;20038;-74
2022/02/07 15:03:30;;;;;;;1.60;0.57;;;18.30;99.90;;;;;;4967903;28;20105;-74
2022/02/07 15:05:59;;;;;;;0.57;0.25;;;18.30;99.90;;;;;;4970011;28;20027;-74
2022/02/07 15:08:28;;;;;;;0.50;0.30;;;18.30;99.90;;;;;;4969966;28;20022;-75
2022/02/07 15:10:56;;;;;;;2.50;0.70;;;18.40;99.90;;;;;;4971168;28;20086;-75
2022/02/07 15:13:25;;;;;;;3.47;0.30;;;18.40;99.90;;;;;;4971449;28;20065;-76
2022/02/07 15:15:53;;;;;;;3.05;0.70;;;18.50;99.90;;;;;;4971748;28;20031;-75
2022/02/07 15:18:23;;;;;;;1.75;0.50;;;18.40;99.90;;;;;;4971472;28;20046;-74
2022/02/07 15:20:50;;;;;;;3.75;0.50;;;18.40;99.90;;;;;;4971085;28;20039;-75
2022/02/07 15:23:18;;;;;;;5.22;0.20;;;18.40;99.90;;;;;;4968811;28;20031;-74
2022/02/07 15:25:46;;;;;;;1.75;0.30;;;18.40;99.90;;;;;;4970746;28;20532;-74
2022/02/07 15:28:14;;;;;;;6.25;0.70;;;18.40;99.90;;;;;;4971451;28;20135;-74
2022/02/07 15:30:46;;;;;;;1.20;0.20;;;18.40;99.90;;;;;;4972141;28;20023;-75
2022/02/07 15:33:23;;;;;;;2.67;0.20;;;18.30;99.90;;;;;;4981007;28;20038;-75
2022/02/07 15:35:52;;;;;;;3.53;0.20;;;18.40;99.90;;;;;;4958022;28;20034;-74
2022/02/07 15:38:25;;;;;;;1.38;0.10;;;18.30;99.90;;;;;;4969567;28;20484;-75
2022/02/07 15:40:56;;;;;;;7.38;0.30;;;18.30;99.90;;;;;;4960755;28;20568;-74
2022/02/07 15:43:23;;;;;;;0.28;0.10;;;18.30;99.90;;;;;;4964144;28;20525;-76
2022/02/07 15:45:51;;;;;;;2.33;0.63;;;18.30;99.90;;;;;;4968764;28;20026;-73
2022/02/07 15:48:23;;;;;;;0.73;0.10;;;18.30;99.90;;;;;;4968978;28;20074;-74
2022/02/07 15:50:52;;;;;;;0.82;0.30;;;18.30;99.90;;;;;;4969750;28;20449;-75
2022/02/07 15:53:19;;;;;;;2.78;0.20;;;18.20;99.90;;;;;;4969733;28;20110;-75
2022/02/07 15:55:47;;;;;;;2.28;0.60;;;18.20;99.90;;;;;;4969340;28;20493;-75
2022/02/07 15:58:14;;;;;;;1.40;0.30;;;18.20;99.90;;;;;;4968514;28;20106;-75
2022/02/07 16:00:41;;;;;;;0.40;0.13;;;18.20;99.90;;;;;;4970786;28;20039;-75